Time;durP1;ratioP1;P1;durP2;ratioP2;P2;SDS_P1;SDS_P2;PMS_P1;PMS_P2;Temp;Humidity;BMP_temperature;BMP_pressure;BME280_temperature;BME280_humidity;BME280_pressure;Samples;Min_cycle;Max_cycle;Signal;HPM_P1;HPM_P2
2021/03/14 00:02:25;;;;;;;84.85;64.60;;;20.10;46.50;;;;;;4341114;60;21606;-27
2021/03/14 00:07:26;;;;;;;81.80;62.13;;;20.10;46.50;;;;;;4337079;64;21064;-25
2021/03/14 00:12:27;;;;;;;85.72;64.32;;;20.10;46.50;;;;;;4338370;60;21052;-23
2021/03/14 00:17:28;;;;;;;85.72;65.07;;;20.10;46.40;;;;;;4340331;60;21529;-25
2021/03/14 00:22:29;;;;;;;84.68;63.65;;;20.10;46.40;;;;;;4393774;60;21075;-31
2021/03/14 00:27:29;;;;;;;86.00;64.60;;;20.10;46.40;;;;;;4381555;60;21054;-23
2021/03/14 00:32:30;;;;;;;82.65;61.50;;;20.10;46.30;;;;;;4350245;60;21064;-30
2021/03/14 00:37:31;;;;;;;85.57;64.12;;;20.10;46.30;;;;;;4367424;60;21064;-32
2021/03/14 00:42:33;;;;;;;83.75;62.28;;;20.00;46.30;;;;;;4339829;60;21123;-31
2021/03/14 00:47:35;;;;;;;81.47;60.92;;;20.10;46.30;;;;;;4364482;60;21553;-33
2021/03/14 00:52:36;;;;;;;86.15;65.55;;;20.10;46.30;;;;;;4342549;60;21158;-31
2021/03/14 00:57:37;;;;;;;82.37;62.30;;;20.10;46.30;;;;;;4339124;60;21122;-24
2021/03/14 01:02:37;;;;;;;81.65;60.53;;;20.10;46.30;;;;;;4336433;64;21051;-29
2021/03/14 01:07:38;;;;;;;83.82;62.47;;;20.10;46.20;;;;;;4345217;60;21173;-28
2021/03/14 01:12:40;;;;;;;82.65;60.83;;;20.10;46.20;;;;;;4342805;60;21116;-31
2021/03/14 01:17:41;;;;;;;83.60;61.85;;;20.00;46.10;;;;;;4366320;60;21124;-27
2021/03/14 01:22:43;;;;;;;79.82;60.05;;;20.00;46.10;;;;;;4343810;60;21083;-30
2021/03/14 01:27:47;;;;;;;81.30;60.20;;;20.00;46.10;;;;;;4344403;60;21124;-27
2021/03/14 01:32:49;;;;;;;81.87;61.55;;;20.10;46.10;;;;;;4350726;60;21079;-31
2021/03/14 01:37:49;;;;;;;82.00;59.47;;;20.00;46.60;;;;;;4338914;60;21063;-25
2021/03/14 01:42:51;;;;;;;81.43;61.28;;;20.00;46.00;;;;;;4351935;60;21610;-30
2021/03/14 01:47:53;;;;;;;80.43;58.92;;;20.00;46.00;;;;;;4364971;60;21115;-25
2021/03/14 01:52:56;;;;;;;78.37;60.00;;;20.00;46.00;;;;;;4337707;60;21051;-31
2021/03/14 01:57:56;;;;;;;74.30;56.28;;;20.10;46.00;;;;;;4365687;60;21657;-28
2021/03/14 02:03:00;;;;;;;81.15;61.30;;;20.00;45.90;;;;;;4363362;60;21067;-32
2021/03/14 02:08:01;;;;;;;78.62;59.22;;;20.00;45.90;;;;;;4337348;64;21626;-26
2021/03/14 02:13:16;;;;;;;79.62;60.28;;;20.00;45.90;;;;;;4349851;60;21063;-24
2021/03/14 02:18:19;;;;;;;73.30;55.53;;;20.00;45.80;;;;;;4364578;60;21076;-29
2021/03/14 02:24:01;;;;;;;74.70;57.60;;;20.00;45.80;;;;;;4364204;60;21112;-24
2021/03/14 02:29:03;;;;;;;74.57;54.45;;;20.00;45.80;;;;;;4361489;60;21070;-27
2021/03/14 02:34:28;;;;;;;77.57;57.40;;;20.00;45.70;;;;;;4337641;64;21092;-31
2021/03/14 02:39:29;;;;;;;74.45;54.55;;;20.00;45.80;;;;;;4373530;60;21072;-32
2021/03/14 02:44:34;;;;;;;72.72;55.08;;;20.00;45.70;;;;;;4352540;60;21075;-25
2021/03/14 02:49:37;;;;;;;72.15;53.63;;;20.00;45.70;;;;;;4347593;60;21059;-22
2021/03/14 02:54:40;;;;;;;72.30;54.05;;;20.00;45.70;;;;;;4341235;60;21079;-27
2021/03/14 02:59:42;;;;;;;69.43;53.00;;;20.00;45.60;;;;;;4388146;60;21103;-29
2021/03/14 03:04:44;;;;;;;71.85;53.33;;;20.00;45.60;;;;;;4337435;64;21056;-35
2021/03/14 03:09:49;;;;;;;69.85;52.47;;;20.00;45.60;;;;;;4361648;60;21071;-26
2021/03/14 03:14:53;;;;;;;68.28;51.88;;;20.00;45.60;;;;;;4345957;60;21120;-28
2021/03/14 03:19:55;;;;;;;67.55;52.25;;;20.00;45.50;;;;;;4352939;60;21194;-27
2021/03/14 03:24:56;;;;;;;67.93;52.00;;;20.00;45.60;;;;;;4351822;60;21091;-25
2021/03/14 03:29:56;;;;;;;69.20;52.78;;;20.00;45.50;;;;;;4368906;60;22022;-24
2021/03/14 03:34:57;;;;;;;66.40;50.50;;;20.00;45.50;;;;;;4355892;60;21051;-27
2021/03/14 03:40:00;;;;;;;67.47;53.08;;;20.00;45.50;;;;;;4361100;60;21091;-23
2021/03/14 03:45:07;;;;;;;61.97;48.58;;;20.00;45.40;;;;;;4350043;60;21071;-25
2021/03/14 03:50:09;;;;;;;65.10;49.13;;;20.00;45.40;;;;;;4352890;60;21075;-24
2021/03/14 03:55:11;;;;;;;67.43;51.40;;;20.00;45.40;;;;;;4358421;60;21573;-24
2021/03/14 04:00:17;;;;;;;64.65;50.10;;;20.00;45.40;;;;;;4355150;60;21084;-25
2021/03/14 04:05:18;;;;;;;65.75;48.38;;;20.00;45.40;;;;;;4355872;60;21092;-27
2021/03/14 04:10:26;;;;;;;63.87;49.33;;;20.00;45.30;;;;;;4356129;60;21090;-24
2021/03/14 04:15:30;;;;;;;65.50;48.50;;;20.00;45.30;;;;;;4356671;60;21562;-26
2021/03/14 04:20:34;;;;;;;61.20;46.75;;;20.00;45.30;;;;;;4343731;60;21088;-26
2021/03/14 04:25:36;;;;;;;63.65;48.15;;;20.00;45.30;;;;;;4339327;60;21104;-29
2021/03/14 04:30:37;;;;;;;61.63;47.47;;;20.00;45.20;;;;;;4336994;64;21107;-27
2021/03/14 04:35:42;;;;;;;58.75;46.28;;;20.00;45.20;;;;;;4338407;60;21055;-25
2021/03/14 04:40:43;;;;;;;56.83;44.72;;;20.00;45.20;;;;;;4336945;64;21114;-26
2021/03/14 04:45:44;;;;;;;59.67;45.75;;;20.00;45.20;;;;;;4340845;60;21048;-24
2021/03/14 04:50:46;;;;;;;58.13;45.45;;;20.00;45.10;;;;;;4355911;60;21084;-26
2021/03/14 04:55:49;;;;;;;57.80;44.05;;;20.00;45.10;;;;;;4408343;60;21084;-29
2021/03/14 05:00:51;;;;;;;56.45;42.83;;;20.00;45.10;;;;;;4372737;60;21119;-26
2021/03/14 05:05:53;;;;;;;57.92;44.10;;;20.00;45.10;;;;;;4373334;60;21124;-36
2021/03/14 05:10:55;;;;;;;57.75;44.90;;;20.00;45.10;;;;;;4342345;60;21142;-25
2021/03/14 05:15:56;;;;;;;55.90;43.78;;;20.00;45.10;;;;;;4366255;60;21063;-25
2021/03/14 05:20:58;;;;;;;52.80;40.97;;;20.00;45.10;;;;;;4347497;60;21115;-25
2021/03/14 05:26:02;;;;;;;56.53;42.72;;;20.00;45.10;;;;;;4347645;60;21084;-23
2021/03/14 05:31:19;;;;;;;53.58;41.97;;;20.00;45.10;;;;;;4336970;61;21114;-29
2021/03/14 05:36:20;;;;;;;51.40;39.75;;;20.00;45.10;;;;;;4343801;60;21103;-25
2021/03/14 05:41:21;;;;;;;53.05;41.95;;;20.00;45.10;;;;;;4364671;60;21123;-35
2021/03/14 05:46:22;;;;;;;51.63;39.80;;;20.00;45.10;;;;;;4346521;60;21517;-31
2021/03/14 05:51:33;;;;;;;52.10;40.20;;;20.00;45.10;;;;;;4336735;64;21064;-27
2021/03/14 05:56:38;;;;;;;50.97;39.50;;;20.00;45.00;;;;;;4337262;64;21060;-27
2021/03/14 06:01:40;;;;;;;49.90;39.28;;;20.00;45.00;;;;;;4337685;60;21107;-25
2021/03/14 06:06:41;;;;;;;51.40;39.63;;;20.00;45.00;;;;;;4337501;61;21541;-27
2021/03/14 06:11:42;;;;;;;50.72;39.58;;;20.00;45.00;;;;;;4344922;60;21068;-24
2021/03/14 06:16:43;;;;;;;51.25;39.38;;;20.00;45.00;;;;;;4337338;64;21067;-27
2021/03/14 06:21:44;;;;;;;47.92;37.22;;;20.00;45.00;;;;;;4389875;60;21140;-26
2021/03/14 06:26:47;;;;;;;47.55;38.47;;;20.00;45.00;;;;;;4336671;64;21533;-35
2021/03/14 06:31:54;;;;;;;46.92;37.70;;;20.00;45.00;;;;;;4364706;60;21127;-23
2021/03/14 06:36:57;;;;;;;48.10;37.42;;;20.00;45.00;;;;;;4337201;64;21097;-35
2021/03/14 06:41:58;;;;;;;48.10;37.42;;;20.00;45.00;;;;;;4346135;60;21075;-24
2021/03/14 06:46:59;;;;;;;47.80;36.13;;;20.00;45.00;;;;;;4350975;60;21076;-24
2021/03/14 06:52:00;;;;;;;47.45;36.88;;;20.00;44.90;;;;;;4355006;60;21151;-24
2021/03/14 06:57:13;;;;;;;46.35;36.10;;;20.00;44.90;;;;;;4346339;60;21537;-22
2021/03/14 07:02:15;;;;;;;45.88;36.55;;;20.00;45.00;;;;;;4346686;60;21083;-25
2021/03/14 07:07:25;;;;;;;49.13;36.58;;;20.00;44.90;;;;;;4352395;60;21088;-27
2021/03/14 07:12:40;;;;;;;45.28;36.28;;;20.00;44.90;;;;;;4338460;60;21597;-23
2021/03/14 07:17:55;;;;;;;47.03;37.63;;;20.00;44.90;;;;;;4355258;60;22269;-29
2021/03/14 07:23:07;;;;;;;47.25;37.58;;;20.00;44.90;;;;;;4339788;60;21076;-28
2021/03/14 07:28:08;;;;;;;46.50;37.50;;;20.00;44.90;;;;;;4349239;60;21059;-23
2021/03/14 07:33:14;;;;;;;48.78;38.22;;;20.00;45.00;;;;;;4361506;60;21581;-23
2021/03/14 07:38:15;;;;;;;45.80;36.67;;;20.00;44.90;;;;;;4337120;64;21115;-24
2021/03/14 07:43:16;;;;;;;47.33;36.63;;;20.00;44.90;;;;;;4346748;60;21127;-25
2021/03/14 07:48:17;;;;;;;48.92;37.53;;;20.00;44.90;;;;;;4356261;60;21647;-28
2021/03/14 07:53:21;;;;;;;47.40;37.58;;;20.00;44.90;;;;;;4336792;64;21091;-32
2021/03/14 07:58:22;;;;;;;49.17;37.70;;;20.00;44.90;;;;;;4339345;60;21099;-31
2021/03/14 08:03:37;;;;;;;51.63;38.15;;;20.00;44.90;;;;;;4350482;60;21111;-32
2021/03/14 08:08:47;;;;;;;50.28;39.72;;;20.00;45.00;;;;;;4351223;60;21156;-25
2021/03/14 08:13:49;;;;;;;47.40;36.92;;;20.00;44.90;;;;;;4336998;60;21601;-28
2021/03/14 08:18:52;;;;;;;48.25;38.47;;;20.00;45.00;;;;;;4349748;60;21565;-24
2021/03/14 08:23:57;;;;;;;46.75;37.33;;;20.00;45.00;;;;;;4377795;60;21553;-27
2021/03/14 08:29:14;;;;;;;49.33;38.65;;;20.00;45.00;;;;;;4362468;60;21422;-26
2021/03/14 08:35:42;;;;;;;49.92;38.33;;;20.00;45.00;;;;;;4355978;60;21606;-25
2021/03/14 08:40:43;;;;;;;46.30;36.90;;;20.00;45.00;;;;;;4346568;60;21204;-27
2021/03/14 08:45:48;;;;;;;48.22;38.20;;;20.00;45.00;;;;;;4337419;64;21517;-26
2021/03/14 08:50:49;;;;;;;48.10;38.80;;;20.00;45.00;;;;;;4338385;60;21177;-27
2021/03/14 08:55:50;;;;;;;49.83;39.05;;;20.00;45.10;;;;;;4337074;64;21051;-27
2021/03/14 09:04:30;;;;;;;49.22;38.42;;;20.00;45.10;;;;;;4340751;60;21558;-28
2021/03/14 09:09:31;;;;;;;48.20;37.08;;;20.00;45.20;;;;;;4339264;60;21375;-29
2021/03/14 09:14:40;;;;;;;53.20;39.88;;;20.00;45.10;;;;;;4373427;60;21137;-28
2021/03/14 09:19:55;;;;;;;51.80;39.83;;;20.00;45.10;;;;;;4357884;60;21601;-25
2021/03/14 09:25:02;;;;;;;52.97;40.08;;;20.00;45.20;;;;;;4367462;60;21068;-25
2021/03/14 09:30:22;;;;;;;52.95;39.72;;;20.00;45.20;;;;;;4348289;60;21107;-28
2021/03/14 09:35:28;;;;;;;48.33;38.20;;;20.00;45.20;;;;;;4346890;60;21606;-32
2021/03/14 09:40:49;;;;;;;50.65;39.80;;;20.00;45.20;;;;;;4379801;60;21710;-27
2021/03/14 09:45:59;;;;;;;51.88;40.12;;;20.00;45.20;;;;;;4336770;64;21072;-24
2021/03/14 09:51:10;;;;;;;50.78;39.38;;;20.00;45.30;;;;;;4365180;60;21055;-26
2021/03/14 09:56:13;;;;;;;52.03;39.92;;;20.00;45.30;;;;;;4381308;60;21128;-25
2021/03/14 10:01:14;;;;;;;52.60;41.03;;;20.00;45.30;;;;;;4355091;60;21125;-23
2021/03/14 10:06:15;;;;;;;55.58;42.60;;;20.00;45.30;;;;;;4375910;60;21051;-30
2021/03/14 10:11:17;;;;;;;54.45;41.80;;;20.00;45.30;;;;;;4338485;60;21047;-27
2021/03/14 10:16:18;;;;;;;52.55;39.85;;;20.00;45.30;;;;;;4340032;60;21131;-25
2021/03/14 10:21:27;;;;;;;55.88;42.00;;;20.00;45.30;;;;;;4362883;60;21139;-25
2021/03/14 10:26:28;;;;;;;55.22;42.58;;;20.00;45.30;;;;;;4344243;60;21063;-25
2021/03/14 10:31:33;;;;;;;53.17;40.15;;;20.00;45.40;;;;;;4339146;60;21059;-24
2021/03/14 10:36:35;;;;;;;55.22;42.13;;;20.00;45.40;;;;;;4363509;60;21542;-29
2021/03/14 10:41:45;;;;;;;56.28;41.83;;;20.00;45.40;;;;;;4352971;60;21269;-26
2021/03/14 10:46:50;;;;;;;53.75;42.13;;;20.00;45.40;;;;;;4362940;60;21614;-23
2021/03/14 10:52:00;;;;;;;56.00;43.03;;;20.00;45.40;;;;;;4344649;60;21116;-26
2021/03/14 10:57:02;;;;;;;55.12;43.30;;;20.00;45.40;;;;;;4353422;60;21039;-24
2021/03/14 11:03:10;;;;;;;55.75;42.00;;;20.10;45.60;;;;;;4350986;60;21084;-25
2021/03/14 11:08:11;;;;;;;54.78;41.65;;;20.00;45.50;;;;;;4344448;60;21665;-29
2021/03/14 11:13:16;;;;;;;55.83;44.20;;;20.00;45.50;;;;;;4348087;60;21168;-36
2021/03/14 11:18:22;;;;;;;55.40;41.95;;;20.00;45.50;;;;;;4391109;60;21055;-32
2021/03/14 11:23:24;;;;;;;53.05;42.67;;;20.10;45.50;;;;;;4380779;60;21071;-30
2021/03/14 11:28:25;;;;;;;55.83;43.40;;;20.00;45.50;;;;;;4372158;60;21553;-27
2021/03/14 11:33:28;;;;;;;56.47;43.15;;;20.00;45.50;;;;;;4342072;60;21063;-35
2021/03/14 11:38:29;;;;;;;54.03;42.72;;;20.00;45.50;;;;;;4370025;60;21092;-35
2021/03/14 11:43:30;;;;;;;55.22;42.47;;;20.10;45.60;;;;;;4337594;60;21543;-26
2021/03/14 11:48:31;;;;;;;55.85;42.78;;;20.10;45.60;;;;;;4337054;64;21129;-26
2021/03/14 11:53:32;;;;;;;58.25;44.00;;;20.10;45.60;;;;;;4337491;64;21071;-32
2021/03/14 11:58:33;;;;;;;60.20;45.40;;;20.10;45.60;;;;;;4354634;60;21161;-29
2021/03/14 12:03:35;;;;;;;56.13;43.38;;;20.10;45.60;;;;;;4336811;61;21549;-35
2021/03/14 12:08:36;;;;;;;56.42;44.00;;;20.10;45.60;;;;;;4355424;60;21079;-31
2021/03/14 12:13:37;;;;;;;59.33;46.33;;;20.10;45.60;;;;;;4376392;60;21526;-30
2021/03/14 12:18:38;;;;;;;57.83;44.60;;;20.10;45.60;;;;;;4350361;60;21090;-28
2021/03/14 12:23:40;;;;;;;59.85;47.28;;;20.10;45.60;;;;;;4336631;64;21096;-27
2021/03/14 12:28:40;;;;;;;63.03;46.72;;;20.10;45.60;;;;;;4370376;60;21247;-28
2021/03/14 12:33:44;;;;;;;59.83;45.70;;;20.10;45.60;;;;;;4357171;60;21592;-29
2021/03/14 12:38:45;;;;;;;59.17;46.90;;;20.10;45.60;;;;;;4357955;60;21111;-37
2021/03/14 12:43:46;;;;;;;63.60;48.80;;;20.10;45.60;;;;;;4367014;60;22004;-27
2021/03/14 12:48:47;;;;;;;58.65;45.08;;;20.10;45.60;;;;;;4354289;60;21062;-25
2021/03/14 12:53:48;;;;;;;64.37;49.30;;;20.10;45.70;;;;;;4353368;60;21107;-31
2021/03/14 12:58:49;;;;;;;64.15;48.33;;;20.00;45.70;;;;;;4376706;60;21618;-24
2021/03/14 13:03:49;;;;;;;61.75;48.50;;;20.10;45.60;;;;;;4339094;60;21394;-23
2021/03/14 13:08:50;;;;;;;64.35;49.33;;;20.10;45.60;;;;;;4354378;60;21067;-32
2021/03/14 13:13:51;;;;;;;60.72;47.53;;;20.10;45.60;;;;;;4336950;64;21059;-34
2021/03/14 13:18:52;;;;;;;64.95;48.78;;;20.10;45.60;;;;;;4359016;60;21056;-23
2021/03/14 13:23:53;;;;;;;62.20;47.50;;;20.10;45.60;;;;;;4339004;60;22454;-26
2021/03/14 13:28:54;;;;;;;61.97;49.03;;;20.10;45.60;;;;;;4386905;60;21123;-29
2021/03/14 13:33:55;;;;;;;69.72;51.33;;;20.10;45.60;;;;;;4336869;64;21071;-29
2021/03/14 13:38:56;;;;;;;62.30;49.58;;;20.10;45.60;;;;;;4357870;60;21582;-24
2021/03/14 13:43:57;;;;;;;58.72;47.00;;;20.10;45.80;;;;;;4349427;60;21067;-23
2021/03/14 13:48:58;;;;;;;61.22;48.55;;;20.10;45.60;;;;;;4377425;60;21644;-28
2021/03/14 13:54:00;;;;;;;67.55;51.78;;;20.10;45.60;;;;;;4357055;60;21202;-25
2021/03/14 13:59:01;;;;;;;63.92;48.33;;;20.10;45.60;;;;;;4369533;60;21168;-27
2021/03/14 14:04:02;;;;;;;62.65;48.50;;;20.10;45.60;;;;;;4342296;60;21606;-27
2021/03/14 14:09:04;;;;;;;63.45;49.17;;;20.10;45.60;;;;;;4337331;64;21453;-28
2021/03/14 14:14:05;;;;;;;65.40;50.20;;;20.10;45.60;;;;;;4349341;60;21108;-25
2021/03/14 14:19:06;;;;;;;64.50;50.10;;;20.10;45.60;;;;;;4336847;64;21071;-26
2021/03/14 14:24:08;;;;;;;60.03;47.75;;;20.10;45.60;;;;;;4372565;60;21064;-23
2021/03/14 14:29:09;;;;;;;63.65;49.63;;;20.10;45.60;;;;;;4368159;60;21103;-26
2021/03/14 14:34:12;;;;;;;63.55;48.55;;;20.10;45.60;;;;;;4362017;60;21136;-24
2021/03/14 14:39:13;;;;;;;65.85;50.40;;;20.10;45.60;;;;;;4340719;60;21565;-26
2021/03/14 14:44:13;;;;;;;62.90;48.55;;;20.10;45.60;;;;;;4419093;60;21059;-35
2021/03/14 14:49:14;;;;;;;65.45;50.00;;;20.10;45.60;;;;;;4336700;64;21064;-24
2021/03/14 14:54:15;;;;;;;62.55;48.33;;;20.10;45.60;;;;;;4380670;60;21123;-27
2021/03/14 14:59:17;;;;;;;61.47;47.97;;;20.10;45.60;;;;;;4353796;60;21584;-26
2021/03/14 15:04:18;;;;;;;64.00;48.65;;;20.10;45.60;;;;;;4347505;60;21605;-25
2021/03/14 15:09:19;;;;;;;63.10;50.50;;;20.10;45.60;;;;;;4336600;60;21064;-28
2021/03/14 15:14:20;;;;;;;60.25;47.92;;;20.10;45.60;;;;;;4354439;60;22049;-29
2021/03/14 15:19:21;;;;;;;62.70;49.75;;;20.10;45.60;;;;;;4339260;60;21549;-25
2021/03/14 15:24:21;;;;;;;61.45;51.10;;;20.10;45.60;;;;;;4337299;60;21144;-34
2021/03/14 15:29:23;;;;;;;63.38;49.60;;;20.10;45.60;;;;;;4358446;60;21112;-26
2021/03/14 15:34:24;;;;;;;63.47;50.60;;;20.10;45.70;;;;;;4339513;60;21619;-24
2021/03/14 15:39:25;;;;;;;63.65;49.58;;;20.10;45.60;;;;;;4338049;64;21071;-28
2021/03/14 15:44:26;;;;;;;63.67;50.33;;;20.10;45.60;;;;;;4337087;64;21051;-29
2021/03/14 15:49:28;;;;;;;65.30;51.80;;;20.10;45.60;;;;;;4340082;60;21553;-24
2021/03/14 15:54:29;;;;;;;60.95;49.33;;;20.10;45.60;;;;;;4354754;60;21087;-24
2021/03/14 15:59:30;;;;;;;62.92;49.60;;;20.10;45.70;;;;;;4357999;60;21096;-30
2021/03/14 16:04:31;;;;;;;60.20;48.65;;;20.10;46.30;;;;;;4339299;60;21121;-28
2021/03/14 16:09:31;;;;;;;64.87;50.55;;;20.10;45.70;;;;;;4340533;60;21120;-22
2021/03/14 16:14:34;;;;;;;61.65;48.45;;;20.10;45.60;;;;;;4337165;64;21595;-27
2021/03/14 16:19:35;;;;;;;61.72;49.38;;;20.10;45.70;;;;;;4338810;60;21067;-31
2021/03/14 16:24:36;;;;;;;62.22;49.45;;;20.10;45.70;;;;;;4390485;60;21067;-26
2021/03/14 16:29:37;;;;;;;66.22;50.03;;;20.10;45.70;;;;;;4354301;60;21064;-28
2021/03/14 16:34:38;;;;;;;64.32;50.45;;;20.10;45.70;;;;;;4356284;60;21634;-29
2021/03/14 16:39:39;;;;;;;62.62;49.78;;;20.10;45.70;;;;;;4353246;60;21124;-25
2021/03/14 16:44:44;;;;;;;65.43;51.55;;;20.10;45.70;;;;;;4354842;60;21621;-30
2021/03/14 16:49:44;;;;;;;62.80;49.45;;;20.10;45.70;;;;;;4343060;60;21136;-28
2021/03/14 16:54:45;;;;;;;59.70;48.75;;;20.10;45.80;;;;;;4337282;64;21103;-31
2021/03/14 16:59:46;;;;;;;63.50;50.25;;;20.10;45.70;;;;;;4336382;64;21107;-34
2021/03/14 17:04:47;;;;;;;62.70;50.50;;;20.10;45.80;;;;;;4352979;60;21480;-31
2021/03/14 17:09:48;;;;;;;61.47;50.22;;;20.10;45.70;;;;;;4350953;60;21119;-32
2021/03/14 17:14:49;;;;;;;63.72;50.22;;;20.10;45.70;;;;;;4352555;60;21071;-25
2021/03/14 17:19:50;;;;;;;61.78;49.80;;;20.10;45.70;;;;;;4351681;60;21569;-28
2021/03/14 17:24:51;;;;;;;63.90;50.80;;;20.10;45.70;;;;;;4341965;60;21115;-26
2021/03/14 17:29:53;;;;;;;64.55;49.47;;;20.10;45.70;;;;;;4352718;60;21059;-27
2021/03/14 17:34:53;;;;;;;59.72;48.05;;;20.10;45.70;;;;;;4376908;60;21128;-30
2021/03/14 17:39:54;;;;;;;60.17;48.15;;;20.10;45.70;;;;;;4337002;64;21602;-26
2021/03/14 17:44:55;;;;;;;60.85;49.03;;;20.10;45.70;;;;;;4353622;60;21084;-23
2021/03/14 17:49:56;;;;;;;56.85;47.55;;;20.10;45.70;;;;;;4338056;64;21545;-25
2021/03/14 17:54:57;;;;;;;57.92;48.35;;;20.10;45.70;;;;;;4348381;60;21629;-27
2021/03/14 17:59:58;;;;;;;60.42;48.55;;;20.10;45.70;;;;;;4359159;60;21218;-28
2021/03/14 18:04:59;;;;;;;61.75;49.25;;;20.10;45.70;;;;;;4357629;60;21659;-25
2021/03/14 18:10:00;;;;;;;59.47;48.03;;;20.10;45.70;;;;;;4361284;60;21574;-23
2021/03/14 18:15:02;;;;;;;60.92;47.55;;;20.10;45.70;;;;;;4343546;60;21063;-28
2021/03/14 18:20:06;;;;;;;60.45;47.53;;;20.10;45.70;;;;;;4340535;60;21060;-25
2021/03/14 18:25:11;;;;;;;58.00;46.03;;;20.10;45.70;;;;;;4366803;60;21091;-29
2021/03/14 18:30:13;;;;;;;59.63;47.33;;;20.10;45.70;;;;;;4345100;60;21096;-27
2021/03/14 18:35:17;;;;;;;58.67;48.00;;;20.10;45.70;;;;;;4344417;60;21083;-26
2021/03/14 18:40:18;;;;;;;57.42;46.72;;;20.10;45.80;;;;;;4338657;60;21052;-31
2021/03/14 18:45:20;;;;;;;56.15;46.85;;;20.10;45.80;;;;;;4340054;60;21555;-22
2021/03/14 18:50:21;;;;;;;58.95;47.45;;;20.10;45.80;;;;;;4382381;60;21055;-26
2021/03/14 18:55:25;;;;;;;57.22;46.25;;;20.10;45.80;;;;;;4345863;60;21689;-30
2021/03/14 19:00:27;;;;;;;57.22;45.83;;;20.10;45.90;;;;;;4352284;60;21176;-29
2021/03/14 19:05:28;;;;;;;54.95;45.50;;;20.10;45.80;;;;;;4363564;60;21102;-23
2021/03/14 19:10:29;;;;;;;57.35;46.40;;;20.10;45.80;;;;;;4350383;60;21416;-28
2021/03/14 19:15:31;;;;;;;56.50;44.63;;;20.10;45.90;;;;;;4337885;63;21043;-27
2021/03/14 19:20:32;;;;;;;56.13;45.47;;;20.10;45.80;;;;;;4397774;60;21124;-28
2021/03/14 19:25:33;;;;;;;54.83;44.33;;;20.10;45.80;;;;;;4355213;60;21125;-24
2021/03/14 19:30:34;;;;;;;53.05;42.72;;;20.10;45.80;;;;;;4356178;60;21116;-24
2021/03/14 19:35:37;;;;;;;52.60;43.08;;;20.10;45.80;;;;;;4352736;60;21070;-26
2021/03/14 19:40:38;;;;;;;52.45;42.28;;;20.10;45.80;;;;;;4346261;60;21071;-28
2021/03/14 19:45:39;;;;;;;53.30;42.35;;;20.10;45.80;;;;;;4346932;60;21521;-26
2021/03/14 19:50:40;;;;;;;49.20;41.33;;;20.10;45.90;;;;;;4337150;64;21083;-25
2021/03/14 19:55:41;;;;;;;52.28;42.35;;;20.10;45.80;;;;;;4350706;60;21060;-27
2021/03/14 20:00:42;;;;;;;47.90;39.15;;;20.10;45.80;;;;;;4336902;64;21136;-25
2021/03/14 20:05:43;;;;;;;48.17;39.13;;;20.10;45.80;;;;;;4353670;60;21115;-25
2021/03/14 20:10:44;;;;;;;50.12;41.22;;;20.10;45.80;;;;;;4358953;60;21143;-24
2021/03/14 20:15:45;;;;;;;49.55;40.65;;;20.10;45.80;;;;;;4356206;60;21587;-23
2021/03/14 20:20:46;;;;;;;47.35;38.50;;;20.10;45.80;;;;;;4345621;60;21109;-27
2021/03/14 20:25:48;;;;;;;45.30;37.80;;;20.10;45.70;;;;;;4344563;60;21542;-29
2021/03/14 20:30:49;;;;;;;45.47;38.45;;;20.10;45.70;;;;;;4369086;60;21562;-23
2021/03/14 20:35:51;;;;;;;46.33;37.63;;;20.10;45.70;;;;;;4337902;60;21553;-25
2021/03/14 20:40:51;;;;;;;41.47;35.22;;;20.10;45.70;;;;;;4353941;60;21079;-26
2021/03/14 20:45:52;;;;;;;42.95;35.83;;;20.10;45.70;;;;;;4393567;60;21748;-23
2021/03/14 20:50:53;;;;;;;42.13;35.22;;;20.10;45.70;;;;;;4371324;60;21570;-26
2021/03/14 20:55:54;;;;;;;39.83;35.10;;;20.10;45.60;;;;;;4359439;60;21059;-23
2021/03/14 21:00:55;;;;;;;42.22;34.65;;;20.10;45.60;;;;;;4336616;64;21626;-24
2021/03/14 21:05:56;;;;;;;41.53;34.42;;;20.10;45.60;;;;;;4344958;60;21119;-25
2021/03/14 21:10:58;;;;;;;40.35;33.97;;;20.00;45.50;;;;;;4337146;64;21131;-31
2021/03/14 21:16:00;;;;;;;37.08;32.08;;;20.00;45.50;;;;;;4355477;60;21143;-33
2021/03/14 21:21:02;;;;;;;40.70;33.47;;;20.00;45.50;;;;;;4336726;64;21760;-25
2021/03/14 21:26:04;;;;;;;37.42;32.55;;;20.00;45.50;;;;;;4353767;60;21128;-27
2021/03/14 21:31:06;;;;;;;39.03;31.48;;;20.00;45.40;;;;;;4358842;60;21071;-27
2021/03/14 21:36:10;;;;;;;37.47;32.15;;;20.00;45.40;;;;;;4385025;60;21100;-25
2021/03/14 21:41:10;;;;;;;36.65;30.85;;;20.00;45.40;;;;;;4354789;60;21175;-24
2021/03/14 21:46:11;;;;;;;36.42;30.52;;;20.00;45.40;;;;;;4336760;64;21121;-28
2021/03/14 21:51:12;;;;;;;35.65;30.52;;;20.00;45.40;;;;;;4374055;60;21087;-25
2021/03/14 21:56:13;;;;;;;35.53;29.75;;;20.00;45.40;;;;;;4341190;60;21582;-29
2021/03/14 22:01:17;;;;;;;34.05;28.95;;;20.00;45.90;;;;;;4351402;60;21326;-24
2021/03/14 22:06:18;;;;;;;35.58;29.27;;;20.00;45.30;;;;;;4343215;60;21084;-24
2021/03/14 22:11:18;;;;;;;34.03;28.98;;;20.00;45.30;;;;;;4393886;60;21546;-25
2021/03/14 22:16:22;;;;;;;31.65;26.50;;;20.00;45.30;;;;;;4349966;60;21060;-24
2021/03/14 22:21:23;;;;;;;32.20;27.60;;;20.00;45.30;;;;;;4354081;60;21633;-31
2021/03/14 22:26:24;;;;;;;31.52;26.65;;;20.00;45.30;;;;;;4363259;60;21252;-30
2021/03/14 22:31:25;;;;;;;31.83;27.40;;;20.00;45.30;;;;;;4364424;60;21482;-26
2021/03/14 22:36:25;;;;;;;32.10;26.95;;;20.00;45.80;;;;;;4376824;60;21089;-25
2021/03/14 22:41:26;;;;;;;30.85;27.48;;;20.00;45.30;;;;;;4339306;60;21429;-33
2021/03/14 22:46:27;;;;;;;30.12;25.73;;;20.00;45.30;;;;;;4371709;60;21116;-24
2021/03/14 22:51:28;;;;;;;31.35;26.62;;;20.00;45.30;;;;;;4362367;60;21151;-24
2021/03/14 22:56:29;;;;;;;30.55;25.50;;;20.00;45.20;;;;;;4353864;60;21040;-25
2021/03/14 23:01:31;;;;;;;29.90;25.30;;;20.00;45.30;;;;;;4360057;60;21145;-25
2021/03/14 23:06:32;;;;;;;30.10;25.73;;;20.00;45.20;;;;;;4340854;60;21054;-24
2021/03/14 23:11:33;;;;;;;29.83;24.83;;;20.00;45.20;;;;;;4387958;60;21079;-23
2021/03/14 23:16:34;;;;;;;29.15;25.23;;;20.00;45.20;;;;;;4356987;60;21100;-25
2021/03/14 23:21:35;;;;;;;28.67;24.70;;;20.00;45.20;;;;;;4360777;60;21573;-23
2021/03/14 23:26:39;;;;;;;28.87;23.83;;;20.00;45.20;;;;;;4354702;60;21142;-22
2021/03/14 23:31:45;;;;;;;27.52;23.45;;;20.00;45.20;;;;;;4366304;60;21672;-25
2021/03/14 23:36:46;;;;;;;25.45;21.62;;;20.00;45.20;;;;;;4372260;60;21081;-30
2021/03/14 23:41:47;;;;;;;26.23;22.98;;;20.00;45.20;;;;;;4357038;60;21138;-25
2021/03/14 23:46:48;;;;;;;26.95;23.35;;;20.00;45.20;;;;;;4353656;60;21091;-29
2021/03/14 23:51:49;;;;;;;25.83;22.40;;;20.00;45.20;;;;;;4389833;60;21120;-22
2021/03/14 23:56:50;;;;;;;26.45;21.52;;;20.00;45.20;;;;;;4344500;60;21064;-29
